• Join FlightAware (Why Join?)
  • Login
  • US Flag 
05:12PM EDT


 

Airport Tracker/Info


-or-


 

Live Flight TrackerFlight Track Log ✈ SKW5162 ✈ 23-May-2013 ✈ KMCO - KIAH

Flight Track Log - Related Links

Times and Time Zones

All times are in EDT time to prevent confusion due to time zone crossing. See the SKW5162 flight status page for this flight to view local times or setup timezone preferences in your user account.

Time Position Orientation Groundspeed Altitude Reporting Facility
EDT Latitude Longitude Course Direction KTS MPH feet Rate Location/Type
04:07PM 28.5500 -81.3333 352° North 259 298 3,400  Level Orlando TRACON
04:08PM 28.5500 -81.4000 270° West 259 298 5,900 2,700 Climbing Orlando TRACON
04:09PM 28.4167 -81.8041 270° West  Level FlightAware Approximate
04:10PM 28.4167 -81.9301 270° West  Level FlightAware Approximate
04:10PM 28.5333 -81.5167 261° West 270 311 9,400  Level Orlando TRACON
04:11PM 28.4167 -82.0562 270° West  Level FlightAware Approximate
04:11PM 28.5167 -81.6167 259° West 287 330 11,600  Level Orlando TRACON
04:12PM 28.5000 -81.7872 264° West 349 402 14,100 1,380 Climbing Jacksonville Center
04:13PM 28.4800 -81.9031 259° West 365 420 15,400 1,440 Climbing Jacksonville Center
04:14PM 28.4661 -82.0211 262° West 379 436 17,000 1,800 Climbing Jacksonville Center
04:15PM 28.4525 -82.1536 263° West 385 443 19,100 1,980 Climbing Jacksonville Center
04:16PM 28.4739 -82.2714 282° West 376 433 21,000 1,620 Climbing Jacksonville Center
04:17PM 28.5142 -82.3822 292° West 376 433 22,400 1,140 Climbing Jacksonville Center
04:18PM 28.5542 -82.5003 291° West 388 447 23,300 900 Climbing Jacksonville Center
04:19PM 28.5961 -82.6206 292° West 396 456 24,200 900 Climbing Jacksonville Center
04:20PM 28.6381 -82.7483 291° West 414 476 25,100 780 Climbing Jacksonville Center
04:21PM 28.6800 -82.8428 297° West 424 488 25,800 900 Climbing Jacksonville Center
04:22PM 28.7886 -82.9375 323° Northwest 418 481 26,900 1,080 Climbing Jacksonville Center
04:23PM 28.8886 -83.0158 326° Northwest 430 495 28,000 1,080 Climbing Jacksonville Center
04:24PM 28.9908 -83.0944 326° Northwest 442 509 29,100 1,020 Climbing Jacksonville Center
04:25PM 29.0931 -83.1778 325° Northwest 442 509 30,100 900 Climbing Jacksonville Center
04:26PM 29.1889 -83.2564 324° Northwest 442 509 31,000 900 Climbing Jacksonville Center
04:27PM 29.2928 -83.3378 326° Northwest 442 509 31,900 900 Climbing Jacksonville Center
04:28PM 29.3822 -83.4311 295° West 442 509 32,800 900 Climbing Jacksonville Center
04:29PM 29.3754 -83.4218 295° West  Level FlightAware Approximate
04:29PM 29.4381 -83.5508 298° West 429 494 33,700  Level Jacksonville Center
04:30PM 29.4981 -83.6728 300° West 429 494 34,400 600 Climbing Jacksonville Center
04:31PM 29.5536 -83.7950 298° West 434 499 35,000 600 Climbing Jacksonville Center
04:32PM 29.6089 -83.9172 298° West 434 499 35,600 600 Climbing Jacksonville Center
04:33PM 29.6642 -84.0422 297° West 429 494 36,200 600 Climbing Jacksonville Center
04:34PM 29.7194 -84.1625 298° West 429 494 36,800 660 Climbing Jacksonville Center
04:35PM 29.7786 -84.2972 297° West 429 494 37,600 600 Climbing Jacksonville Center
04:36PM 29.8358 -84.4153 299° West 424 488 38,000 180 Climbing Jacksonville Center
04:37PM 29.8906 -84.5336 298° West 424 488 38,000  Level Jacksonville Center
04:39PM 29.9427 -84.6505 297° West  Level FlightAware Approximate
04:39PM 29.9978 -84.7753 297° West 429 494 38,000  Level Jacksonville Center
04:40PM 30.0506 -84.8914 298° West 419 482 38,000  Level Jacksonville Center
04:41PM 30.1008 -85.0031 298° West 409 471 38,000  Level Jacksonville Center
04:42PM 30.1511 -85.1194 297° West 404 465 38,000  Level Jacksonville Center
04:43PM 30.2011 -85.2333 297° West 404 465 38,000  Level Jacksonville Center
04:44PM 30.2533 -85.3478 298° West 404 465 38,000  Level Jacksonville Center
04:45PM 30.3033 -85.4644 296° West 404 465 38,000  Level Jacksonville Center
04:46PM 30.3550 -85.5814 297° West 409 471 38,000  Level Jacksonville Center
04:47PM 30.3961 -85.7053 291° West 409 471 38,000  Level Jacksonville Center
04:48PM 30.3994 -85.8356 272° West 399 459 38,000  Level Jacksonville Center
04:49PM 30.4047 -85.9706 273° West 414 476 38,000  Level Jacksonville Center
04:50PM 30.4036 -86.1006 269° West 414 476 38,000  Level Jacksonville Center
04:51PM 30.4086 -86.2356 272° West 414 476 38,000  Level Jacksonville Center
04:52PM 30.4069 -86.3681 269° West 414 476 38,000  Level Jacksonville Center
04:53PM 30.4117 -86.5031 272° West 420 483 38,000  Level Jacksonville Center
04:54PM 30.4119 -86.6378 270° West 420 483 38,000  Level Jacksonville Center
04:55PM 30.4144 -86.7631 271° West 420 483 38,000  Level Jacksonville Center
04:56PM 30.4144 -86.9006 270° West 420 483 38,000  Level Jacksonville Center
04:57PM 30.4164 -87.0306 271° West 420 483 38,000  Level Jacksonville Center
04:58PM 30.4161 -87.1678 270° West 420 483 38,000  Level Jacksonville Center
04:59PM 30.4178 -87.3028 271° West 420 483 38,000  Level Jacksonville Center
05:00PM 30.4172 -87.4375 270° West 420 483 38,000  Level Jacksonville Center
05:02PM 30.4197 -87.6258 271° West 424 488 38,000  Level Houston Center
05:03PM 30.4200 -87.7625 270° West 423 487 38,000  Level Houston Center
05:04PM 30.4208 -87.8994 270° West 425 489 38,000  Level Houston Center
05:05PM 30.4208 -88.0361 270° West 424 488 38,000  Level Houston Center
05:06PM 30.4211 -88.1722 270° West 422 486 38,000  Level Houston Center
05:07PM 30.4194 -88.3094 269° West 423 487 38,000  Level Houston Center
05:08PM 30.4197 -88.4736 270° West 424 488 38,000  Level Houston Center
05:09PM 30.4189 -88.6100 270° West 424 488 38,000  Level Houston Center
05:10PM 30.4189 -88.7472 270° West 425 489 38,000  Level Houston Center
05:11PM 30.4172 -88.8825 269° West 423 487 38,000  Level Houston Center
05:12PM 30.4189 -89.0314 271° West 424 488 38,000  Level Houston Center
05:13PM 30.4175 -89.1653 269° West 419 482 38,000  Level Houston Center
05:14PM 30.4011 -89.2978 262° West 423 487 38,000  Level Houston Center
05:15PM 30.3608 -89.4250 250° West 421 484 38,000  Level Houston Center
05:16PM 30.3311 -89.5569 255° West 422 486 38,000  Level Houston Center
05:17PM 30.2928 -89.7039 253° West 433 498 38,000  Level Houston Center
05:18PM 30.2644 -89.8358 256° West 426 490 38,000  Level Houston Center
05:19PM 30.2433 -89.9928 261° West 423 487 38,000  Level Houston Center
05:20PM 30.2297 -90.1275 263° West 419 482 38,000  Level Houston Center
05:21PM 30.2144 -90.2617 263° West 420 483 38,000  Level Houston Center
05:22PM 30.2000 -90.3964 263° West 423 487 38,000  Level Houston Center
05:23PM 30.1833 -90.5319 262° West 426 490 38,000  Level Houston Center
05:25PM 30.1692 -90.6658 263° West 423 487 38,000  Level Houston Center
05:26PM 30.1525 -90.8278 263° West 422 486 38,000  Level Houston Center
05:27PM 30.1219 -90.9606 255° West 425 489 38,000  Level Houston Center
05:28PM 30.0836 -91.0911 251° West 429 494 38,000  Level Houston Center
05:29PM 30.0461 -91.2206 252° West 428 493 38,000  Level Houston Center
05:30PM 30.0086 -91.3508 252° West 428 493 38,000  Level Houston Center
05:31PM 29.9697 -91.4789 251° West 425 489 38,000  Level Houston Center
05:32PM 29.9261 -91.6325 252° West 421 484 38,000  Level Houston Center
05:33PM 29.8886 -91.7564 251° West 420 483 38,000  Level Houston Center
05:34PM 29.8486 -91.8844 250° West 423 487 38,000  Level Houston Center
05:35PM 29.8114 -92.0119 251° West 422 486 38,000  Level Houston Center
05:36PM 29.7728 -92.1378 251° West 419 482 38,000  Level Houston Center
05:37PM 29.7264 -92.2911 251° West 421 484 38,000  Level Houston Center
05:38PM 29.6881 -92.4189 251° West 421 484 38,000  Level Houston Center
05:39PM 29.6489 -92.5458 250° West 422 486 38,000  Level Houston Center
05:40PM 29.6092 -92.6756 251° West 423 487 38,000  Level Houston Center
05:41PM 29.5711 -92.8014 251° West 423 487 38,000 -60 Level Houston Center
05:42PM 29.5300 -92.9297 250° West 425 489 37,900 -1,440 Descending Houston Center
05:43PM 29.4881 -93.0867 253° West 429 494 35,100 -2,520 Descending Houston Center
05:44PM 29.4694 -93.2219 261° West 431 496 32,800 -2,280 Descending Houston Center
05:45PM 29.3817 -93.3144 223° Southwest 437 503 30,500 -2,280 Descending Houston Center
05:46PM 29.2781 -93.3792 209° Southwest 439 505 28,200 -2,220 Descending Houston Center
05:47PM 29.2900 -93.5003 276° West 404 465 26,000 -1,980 Descending Houston Center
05:48PM 29.3250 -93.6203 289° West 395 455 24,100 -1,860 Descending Houston Center
05:49PM 29.3600 -93.7436 288° West 403 464 22,200 -2,040 Descending Houston Center
05:50PM 29.4025 -93.8889 289° West 401 461 19,900 -2,100 Descending Houston Center
05:51PM 29.4364 -94.0053 289° West 389 448 17,900 -1,860 Descending Houston Center
05:52PM 29.4686 -94.1178 288° West 376 433 16,100 -1,860 Descending Houston Center
05:53PM 29.4931 -94.2064 288° West 367 422 14,700 -1,980 Descending Houston Center
05:54PM 29.5033 -94.2406 289° West 367 422 14,100 -1,680 Descending Houston Center
05:54PM 29.5214 -94.3011 289° West 351 404 13,200 -1,020 Descending Houston Center
05:55PM 29.5339 -94.3464 288° West 354 407 13,100 -120 Descending Houston Center
05:55PM 29.5597 -94.4092 295° West 350 403 13,100 -120 Level Houston Center
05:56PM 29.5758 -94.4450 297° West 349 402 13,000 -660 Descending Houston Center
05:56PM 29.6000 -94.5000 297° West 350 403 12,500 -780 Descending Houston Center
05:57PM 29.6189 -94.5442 296° West 348 400 12,200 -840 Descending Houston Center
05:57PM 29.6439 -94.6050 295° West 322 371 11,600 -900 Descending Houston Center
05:58PM 29.6578 -94.6347 298° West 323 372 11,300 -1,140 Descending Houston Center
05:58PM 29.6847 -94.6986 296° West 314 361 10,500 -1,200 Descending Houston Center
05:59PM 29.6958 -94.7244 296° West 315 362 10,100 -1,260 Descending Houston Center
05:59PM 29.7225 -94.7875 296° West 306 352 9,200 -1,500 Descending Houston Center
06:00PM 29.7397 -94.8275 296° West 304 350 8,600 -1,380 Descending Houston Center
06:00PM 29.7581 -94.8722 295° West 294 338 7,800 -1,260 Descending Houston Center
06:01PM 29.7756 -94.9103 298° West 293 337 7,300 -1,320 Descending Houston Center
06:01PM 29.7903 -94.9478 294° West 284 327 6,600 -1,260 Descending Houston Center
06:02PM 29.8108 -94.9908 299° West 287 330 6,000 -540 Descending Houston Center
06:02PM 29.8308 -95.0414 295° West 283 326 6,000  Level Houston Center
06:03PM 29.8447 -95.0731 297° West 286 329 6,000  Level Houston Center
06:03PM 29.8661 -95.1261 295° West 298 343 6,000  Level Houston Center
06:04PM 29.8867 -95.1739 296° West 294 338 6,000  Level Houston Center
06:04PM 29.8964 -95.2044 290° West 294 338 6,000 60 Level Houston Center
06:05PM 29.8994 -95.2622 274° West 287 330 6,100  Climbing Houston Center
06:05PM 29.8997 -95.3078 270° West 273 314 6,000  Descending Houston Center
06:06PM 29.9003 -95.3458 271° West 264 304 6,100  Climbing Houston Center
06:06PM 29.8992 -95.3944 269° West 236 272 6,000 -120 Descending Houston Center
06:07PM 29.9017 -95.4208 276° West 240 276 6,000  Level Houston Center
06:07PM 29.8994 -95.4667 267° West 244 281 6,000 -120 Level Houston Center
06:08PM 29.9017 -95.4975 275° West 240 276 5,900 -600 Descending Houston Center
06:08PM 29.9000 -95.5439 268° West 238 274 5,400 -1,500 Descending Houston Center
06:09PM 29.9019 -95.5883 273° West 239 275 4,400 -1,440 Descending Houston Center
06:09PM 29.9000 -95.6136 265° West 240 276 4,100 -420 Descending Houston Center
06:10PM 29.9019 -95.6650 273° West 240 276 4,000 -120 Descending Houston Center
06:10PM 29.9014 -95.6978 269° West 236 272 4,000  Level Houston Center
06:11PM 29.9069 -95.7400 279° West 237 273 4,000  Level Houston Center
06:12PM 29.9308 -95.7692 313° West 234 269 4,000  Level Houston Center
06:12PM 29.9569 -95.7556 24° Northeast 230 265 4,000  Level Houston Center
06:12PM 29.9736 -95.7303 53° Northeast 233 268 4,000  Level Houston Center
06:13PM 29.9919 -95.6936 60° Northeast 232 267 4,000  Level Houston Center
06:14PM 29.9919 -95.6536 90° East 226 260 4,000  Level Houston Center
06:14PM 29.9928 -95.6206 88° East 231 266 4,000 -120 Level Houston Center
06:14PM 29.9928 -95.5931 90° East 213 245 3,900 -780 Descending Houston Center
06:15PM 29.9925 -95.5436 90° East 207 238 3,200 -900 Descending Houston Center